Portada
METAR-TAF:

METAR-TAF

Aeropuertos :

Longyearbyen, Noruega

Aeropuerto de Svalbard

latitud: 78-15N, longitud: 015-28E, altitud: 2 m

Observación

El informe se hizo hace 48 minutos, a las 19:50 UTC
Viento 10 kt del oeste-suroeste
Temperatura 6°C
Humedad 93%
Presión 1015 hPa
Visibilidad 10 km o más
Escasas nubes a una altura de 600 ft
Cielo nuboso a una altura de 1200 ft

METAR: ENSB 241950Z 25010KT 9999 FEW006 BKN012 06/05 Q1015 RMK WIND 1400FT 26007KT

Hora: 22:38 (20:38 UTC)

Pronóstico

Pronóstico válido del 24 a las 18 UTC al 25 a las 18 UTC
Viento 12 kt del oeste-suroeste
Visibilidad 10 km o más
Nubes dispersas a una altura de 900 ft
Evolucionando progresivamente
del 24 a las 19 UTC al 24 a las 21 UTC
Viento 5 kt con dirección variable
Temporalmente
del 24 a las 19 UTC al 25 a las 12 UTC
Cielo nuboso a una altura de 700 ft
lluvia ligera, llovizna

TAF: ENSB 2418/2518 25012KT 9999 SCT009 BECMG 2419/2421 VRB05KT TEMPO 2419/2512 -RADZ BKN007

Observaciones y pronósticos meteorológicos de más de 4000 aeropuertos (mensajes METAR y TAF).

Los puntos amarillos y rojos representan las estaciones disponibles.

Ponga el ratón en el punto deseado para ver el nombre de la estación.

Haga clic para ver las observaciones y los pronósticos meteorológicos.

Para cambiar el mapa : haga clic en los botones verdes con una cruz de color negro para hacer un zoom, en el botón verde con un guión para alejar o en las flechas verdes para mapas adyacentes.


METAR-TAF: